sensor_id;sensor_type;location;lat;lon;timestamp;P1;durP1;ratioP1;P2;durP2;ratioP2
13085;SDS011;6609;49.882;8.664;2023-08-06T00:01:48;6.20;;;3.00;;
13085;SDS011;6609;49.882;8.664;2023-08-06T00:04:15;4.10;;;2.80;;
13085;SDS011;6609;49.882;8.664;2023-08-06T00:06:42;4.33;;;2.80;;
13085;SDS011;6609;49.882;8.664;2023-08-06T00:09:09;5.93;;;3.13;;
13085;SDS011;6609;49.882;8.664;2023-08-06T00:11:36;6.47;;;3.17;;
13085;SDS011;6609;49.882;8.664;2023-08-06T00:14:04;5.50;;;2.87;;
13085;SDS011;6609;49.882;8.664;2023-08-06T00:16:31;6.57;;;3.13;;
13085;SDS011;6609;49.882;8.664;2023-08-06T00:18:58;4.07;;;2.87;;
13085;SDS011;6609;49.882;8.664;2023-08-06T00:21:24;3.17;;;2.53;;
13085;SDS011;6609;49.882;8.664;2023-08-06T00:23:51;4.13;;;3.00;;
13085;SDS011;6609;49.882;8.664;2023-08-06T00:26:18;5.27;;;2.80;;
13085;SDS011;6609;49.882;8.664;2023-08-06T00:28:45;4.13;;;3.03;;
13085;SDS011;6609;49.882;8.664;2023-08-06T00:31:14;3.13;;;2.63;;
13085;SDS011;6609;49.882;8.664;2023-08-06T00:33:41;6.13;;;3.30;;
13085;SDS011;6609;49.882;8.664;2023-08-06T00:36:08;4.97;;;3.00;;
13085;SDS011;6609;49.882;8.664;2023-08-06T00:38:34;5.53;;;3.10;;
13085;SDS011;6609;49.882;8.664;2023-08-06T00:41:01;5.40;;;3.17;;
13085;SDS011;6609;49.882;8.664;2023-08-06T00:43:28;6.80;;;2.97;;
13085;SDS011;6609;49.882;8.664;2023-08-06T00:45:55;5.27;;;3.13;;
13085;SDS011;6609;49.882;8.664;2023-08-06T00:48:23;4.90;;;3.40;;
13085;SDS011;6609;49.882;8.664;2023-08-06T00:50:50;5.80;;;2.87;;
13085;SDS011;6609;49.882;8.664;2023-08-06T00:53:18;6.10;;;2.80;;
13085;SDS011;6609;49.882;8.664;2023-08-06T00:55:44;4.43;;;2.90;;
13085;SDS011;6609;49.882;8.664;2023-08-06T00:58:12;4.47;;;2.80;;
13085;SDS011;6609;49.882;8.664;2023-08-06T01:00:40;6.97;;;2.87;;
13085;SDS011;6609;49.882;8.664;2023-08-06T01:03:07;5.30;;;2.80;;
13085;SDS011;6609;49.882;8.664;2023-08-06T01:05:35;7.27;;;2.90;;
13085;SDS011;6609;49.882;8.664;2023-08-06T01:08:07;5.60;;;2.60;;
13085;SDS011;6609;49.882;8.664;2023-08-06T01:10:41;5.00;;;2.80;;
13085;SDS011;6609;49.882;8.664;2023-08-06T01:13:18;5.33;;;2.90;;
13085;SDS011;6609;49.882;8.664;2023-08-06T01:15:58;3.17;;;2.53;;
13085;SDS011;6609;49.882;8.664;2023-08-06T01:18:25;5.67;;;2.30;;
13085;SDS011;6609;49.882;8.664;2023-08-06T01:20:54;6.87;;;3.30;;
13085;SDS011;6609;49.882;8.664;2023-08-06T01:23:20;3.93;;;2.37;;
13085;SDS011;6609;49.882;8.664;2023-08-06T01:25:49;8.73;;;2.40;;
13085;SDS011;6609;49.882;8.664;2023-08-06T01:28:27;4.67;;;2.60;;
13085;SDS011;6609;49.882;8.664;2023-08-06T01:31:02;3.70;;;2.57;;
13085;SDS011;6609;49.882;8.664;2023-08-06T01:33:32;5.23;;;2.70;;
13085;SDS011;6609;49.882;8.664;2023-08-06T01:36:01;3.37;;;2.27;;
13085;SDS011;6609;49.882;8.664;2023-08-06T01:38:29;5.33;;;2.77;;
13085;SDS011;6609;49.882;8.664;2023-08-06T01:40:57;5.80;;;2.80;;
13085;SDS011;6609;49.882;8.664;2023-08-06T01:43:24;4.87;;;3.10;;
13085;SDS011;6609;49.882;8.664;2023-08-06T01:45:51;4.50;;;2.43;;
13085;SDS011;6609;49.882;8.664;2023-08-06T01:48:18;4.03;;;2.50;;
13085;SDS011;6609;49.882;8.664;2023-08-06T01:50:44;6.03;;;3.17;;
13085;SDS011;6609;49.882;8.664;2023-08-06T01:53:12;4.00;;;2.27;;
13085;SDS011;6609;49.882;8.664;2023-08-06T01:55:39;4.23;;;2.40;;
13085;SDS011;6609;49.882;8.664;2023-08-06T01:58:06;5.67;;;2.50;;
13085;SDS011;6609;49.882;8.664;2023-08-06T02:00:33;5.60;;;2.83;;
13085;SDS011;6609;49.882;8.664;2023-08-06T02:03:00;4.00;;;2.67;;
13085;SDS011;6609;49.882;8.664;2023-08-06T02:05:27;4.37;;;2.80;;
13085;SDS011;6609;49.882;8.664;2023-08-06T02:07:54;4.43;;;2.70;;
13085;SDS011;6609;49.882;8.664;2023-08-06T02:10:22;5.50;;;2.63;;
13085;SDS011;6609;49.882;8.664;2023-08-06T02:12:49;5.73;;;3.10;;
13085;SDS011;6609;49.882;8.664;2023-08-06T02:15:16;5.17;;;2.70;;
13085;SDS011;6609;49.882;8.664;2023-08-06T02:17:43;3.87;;;2.80;;
13085;SDS011;6609;49.882;8.664;2023-08-06T02:20:10;5.17;;;2.33;;
13085;SDS011;6609;49.882;8.664;2023-08-06T02:22:37;5.20;;;2.37;;
13085;SDS011;6609;49.882;8.664;2023-08-06T02:25:04;3.57;;;2.60;;
13085;SDS011;6609;49.882;8.664;2023-08-06T02:27:32;5.00;;;2.17;;
13085;SDS011;6609;49.882;8.664;2023-08-06T02:29:59;4.90;;;2.40;;
13085;SDS011;6609;49.882;8.664;2023-08-06T02:32:27;3.87;;;2.50;;
13085;SDS011;6609;49.882;8.664;2023-08-06T02:34:56;5.63;;;2.67;;
13085;SDS011;6609;49.882;8.664;2023-08-06T02:37:23;4.43;;;2.47;;
13085;SDS011;6609;49.882;8.664;2023-08-06T02:39:50;2.77;;;2.37;;
13085;SDS011;6609;49.882;8.664;2023-08-06T02:42:17;3.60;;;2.10;;
13085;SDS011;6609;49.882;8.664;2023-08-06T02:44:45;4.00;;;2.27;;
13085;SDS011;6609;49.882;8.664;2023-08-06T02:47:13;4.50;;;2.60;;
13085;SDS011;6609;49.882;8.664;2023-08-06T02:49:39;3.53;;;1.90;;
13085;SDS011;6609;49.882;8.664;2023-08-06T02:52:06;4.83;;;2.40;;
13085;SDS011;6609;49.882;8.664;2023-08-06T02:54:33;4.43;;;2.53;;
13085;SDS011;6609;49.882;8.664;2023-08-06T02:57:01;3.30;;;2.17;;
13085;SDS011;6609;49.882;8.664;2023-08-06T02:59:27;3.23;;;2.17;;
13085;SDS011;6609;49.882;8.664;2023-08-06T03:01:56;4.80;;;2.40;;
13085;SDS011;6609;49.882;8.664;2023-08-06T03:04:22;4.53;;;2.07;;
13085;SDS011;6609;49.882;8.664;2023-08-06T03:06:50;4.37;;;2.03;;
13085;SDS011;6609;49.882;8.664;2023-08-06T03:09:17;5.47;;;2.43;;
13085;SDS011;6609;49.882;8.664;2023-08-06T03:11:43;4.67;;;2.03;;
13085;SDS011;6609;49.882;8.664;2023-08-06T03:14:10;5.90;;;1.97;;
13085;SDS011;6609;49.882;8.664;2023-08-06T03:16:37;3.37;;;1.90;;
13085;SDS011;6609;49.882;8.664;2023-08-06T03:19:05;4.63;;;2.40;;
13085;SDS011;6609;49.882;8.664;2023-08-06T03:21:32;8.87;;;2.50;;
13085;SDS011;6609;49.882;8.664;2023-08-06T03:23:59;3.80;;;2.17;;
13085;SDS011;6609;49.882;8.664;2023-08-06T03:26:26;4.87;;;2.63;;
13085;SDS011;6609;49.882;8.664;2023-08-06T03:28:53;6.07;;;2.53;;
13085;SDS011;6609;49.882;8.664;2023-08-06T03:31:20;5.47;;;2.57;;
13085;SDS011;6609;49.882;8.664;2023-08-06T03:33:46;4.20;;;2.17;;
13085;SDS011;6609;49.882;8.664;2023-08-06T03:36:15;5.73;;;2.57;;
13085;SDS011;6609;49.882;8.664;2023-08-06T03:38:42;5.60;;;1.90;;
13085;SDS011;6609;49.882;8.664;2023-08-06T03:41:09;3.87;;;2.40;;
13085;SDS011;6609;49.882;8.664;2023-08-06T03:43:35;4.33;;;2.30;;
13085;SDS011;6609;49.882;8.664;2023-08-06T03:46:02;4.30;;;1.87;;
13085;SDS011;6609;49.882;8.664;2023-08-06T03:48:29;4.40;;;2.03;;
13085;SDS011;6609;49.882;8.664;2023-08-06T03:50:56;6.00;;;2.23;;
13085;SDS011;6609;49.882;8.664;2023-08-06T03:53:24;2.90;;;1.87;;
13085;SDS011;6609;49.882;8.664;2023-08-06T03:55:51;7.60;;;2.70;;
13085;SDS011;6609;49.882;8.664;2023-08-06T03:58:17;3.77;;;2.57;;
13085;SDS011;6609;49.882;8.664;2023-08-06T04:00:44;2.83;;;1.77;;
13085;SDS011;6609;49.882;8.664;2023-08-06T04:03:11;3.57;;;1.80;;
13085;SDS011;6609;49.882;8.664;2023-08-06T04:05:38;8.43;;;1.67;;
13085;SDS011;6609;49.882;8.664;2023-08-06T04:08:05;3.00;;;2.10;;
13085;SDS011;6609;49.882;8.664;2023-08-06T04:10:33;3.20;;;1.97;;
13085;SDS011;6609;49.882;8.664;2023-08-06T04:13:00;6.57;;;3.07;;
13085;SDS011;6609;49.882;8.664;2023-08-06T04:15:27;7.70;;;3.10;;
13085;SDS011;6609;49.882;8.664;2023-08-06T04:17:54;6.53;;;3.23;;
13085;SDS011;6609;49.882;8.664;2023-08-06T04:20:21;4.97;;;3.07;;
13085;SDS011;6609;49.882;8.664;2023-08-06T04:22:48;4.53;;;2.87;;
13085;SDS011;6609;49.882;8.664;2023-08-06T04:25:15;4.07;;;2.67;;
13085;SDS011;6609;49.882;8.664;2023-08-06T04:27:47;6.17;;;3.20;;
13085;SDS011;6609;49.882;8.664;2023-08-06T04:30:14;4.90;;;3.03;;
13085;SDS011;6609;49.882;8.664;2023-08-06T04:32:41;6.43;;;3.27;;
13085;SDS011;6609;49.882;8.664;2023-08-06T04:35:08;4.63;;;3.10;;
13085;SDS011;6609;49.882;8.664;2023-08-06T04:37:35;5.60;;;3.37;;
13085;SDS011;6609;49.882;8.664;2023-08-06T04:40:01;10.03;;;3.33;;
13085;SDS011;6609;49.882;8.664;2023-08-06T04:42:28;7.00;;;3.03;;
13085;SDS011;6609;49.882;8.664;2023-08-06T04:44:57;6.03;;;3.30;;
13085;SDS011;6609;49.882;8.664;2023-08-06T04:47:23;6.23;;;2.70;;
13085;SDS011;6609;49.882;8.664;2023-08-06T04:49:50;5.50;;;3.13;;
13085;SDS011;6609;49.882;8.664;2023-08-06T04:52:17;6.27;;;2.90;;
13085;SDS011;6609;49.882;8.664;2023-08-06T04:54:44;5.80;;;2.40;;
13085;SDS011;6609;49.882;8.664;2023-08-06T04:57:11;4.50;;;2.73;;
13085;SDS011;6609;49.882;8.664;2023-08-06T04:59:38;4.00;;;2.87;;
13085;SDS011;6609;49.882;8.664;2023-08-06T05:02:06;4.20;;;2.67;;
13085;SDS011;6609;49.882;8.664;2023-08-06T05:04:33;5.47;;;2.50;;
13085;SDS011;6609;49.882;8.664;2023-08-06T05:07:00;3.77;;;2.07;;
13085;SDS011;6609;49.882;8.664;2023-08-06T05:09:26;6.20;;;2.60;;
13085;SDS011;6609;49.882;8.664;2023-08-06T05:11:54;6.10;;;2.57;;
13085;SDS011;6609;49.882;8.664;2023-08-06T05:14:21;2.47;;;1.60;;
13085;SDS011;6609;49.882;8.664;2023-08-06T05:16:48;5.27;;;2.07;;
13085;SDS011;6609;49.882;8.664;2023-08-06T05:19:15;5.77;;;2.60;;
13085;SDS011;6609;49.882;8.664;2023-08-06T05:21:42;5.27;;;2.57;;
13085;SDS011;6609;49.882;8.664;2023-08-06T05:24:09;2.90;;;1.80;;
13085;SDS011;6609;49.882;8.664;2023-08-06T05:26:37;3.63;;;2.47;;
13085;SDS011;6609;49.882;8.664;2023-08-06T05:29:03;3.47;;;1.80;;
13085;SDS011;6609;49.882;8.664;2023-08-06T05:31:30;3.90;;;1.97;;
13085;SDS011;6609;49.882;8.664;2023-08-06T05:33:57;4.10;;;2.23;;
13085;SDS011;6609;49.882;8.664;2023-08-06T05:36:25;2.67;;;1.77;;
13085;SDS011;6609;49.882;8.664;2023-08-06T05:38:52;3.37;;;1.80;;
13085;SDS011;6609;49.882;8.664;2023-08-06T05:41:18;7.30;;;1.87;;
13085;SDS011;6609;49.882;8.664;2023-08-06T05:43:45;4.63;;;1.80;;
13085;SDS011;6609;49.882;8.664;2023-08-06T05:46:15;5.60;;;1.90;;
13085;SDS011;6609;49.882;8.664;2023-08-06T05:48:41;3.47;;;1.87;;
13085;SDS011;6609;49.882;8.664;2023-08-06T05:51:08;2.20;;;1.70;;
13085;SDS011;6609;49.882;8.664;2023-08-06T05:53:39;3.30;;;2.17;;
13085;SDS011;6609;49.882;8.664;2023-08-06T05:56:06;5.83;;;1.80;;
13085;SDS011;6609;49.882;8.664;2023-08-06T05:58:32;4.07;;;2.20;;
13085;SDS011;6609;49.882;8.664;2023-08-06T06:00:59;3.73;;;2.00;;
13085;SDS011;6609;49.882;8.664;2023-08-06T06:03:26;7.33;;;2.40;;
13085;SDS011;6609;49.882;8.664;2023-08-06T06:05:53;2.73;;;2.07;;
13085;SDS011;6609;49.882;8.664;2023-08-06T06:08:20;4.53;;;2.13;;
13085;SDS011;6609;49.882;8.664;2023-08-06T06:10:48;4.03;;;2.00;;
13085;SDS011;6609;49.882;8.664;2023-08-06T06:13:15;4.90;;;2.10;;
13085;SDS011;6609;49.882;8.664;2023-08-06T06:15:42;4.57;;;2.10;;
13085;SDS011;6609;49.882;8.664;2023-08-06T06:18:09;3.00;;;1.40;;
13085;SDS011;6609;49.882;8.664;2023-08-06T06:20:36;3.00;;;1.97;;
13085;SDS011;6609;49.882;8.664;2023-08-06T06:23:03;2.73;;;1.73;;
13085;SDS011;6609;49.882;8.664;2023-08-06T06:25:30;4.80;;;2.43;;
13085;SDS011;6609;49.882;8.664;2023-08-06T06:27:59;3.23;;;2.27;;
13085;SDS011;6609;49.882;8.664;2023-08-06T06:30:25;4.30;;;1.93;;
13085;SDS011;6609;49.882;8.664;2023-08-06T06:32:52;3.37;;;1.73;;
13085;SDS011;6609;49.882;8.664;2023-08-06T06:35:19;5.43;;;2.30;;
13085;SDS011;6609;49.882;8.664;2023-08-06T06:37:46;5.33;;;1.97;;
13085;SDS011;6609;49.882;8.664;2023-08-06T06:40:14;2.90;;;1.70;;
13085;SDS011;6609;49.882;8.664;2023-08-06T06:42:41;4.87;;;1.70;;
13085;SDS011;6609;49.882;8.664;2023-08-06T06:45:10;3.63;;;1.83;;
13085;SDS011;6609;49.882;8.664;2023-08-06T06:47:37;3.27;;;1.73;;
13085;SDS011;6609;49.882;8.664;2023-08-06T06:50:04;2.80;;;2.10;;
13085;SDS011;6609;49.882;8.664;2023-08-06T06:52:31;4.37;;;1.90;;
13085;SDS011;6609;49.882;8.664;2023-08-06T06:54:58;4.30;;;1.87;;
13085;SDS011;6609;49.882;8.664;2023-08-06T06:57:24;4.07;;;1.50;;
13085;SDS011;6609;49.882;8.664;2023-08-06T06:59:51;4.10;;;1.50;;
13085;SDS011;6609;49.882;8.664;2023-08-06T07:02:20;2.17;;;1.37;;
13085;SDS011;6609;49.882;8.664;2023-08-06T07:04:46;2.50;;;1.60;;
13085;SDS011;6609;49.882;8.664;2023-08-06T07:07:13;2.63;;;1.90;;
13085;SDS011;6609;49.882;8.664;2023-08-06T07:09:40;4.03;;;1.40;;
13085;SDS011;6609;49.882;8.664;2023-08-06T07:12:08;4.10;;;1.60;;
13085;SDS011;6609;49.882;8.664;2023-08-06T07:14:34;1.80;;;1.30;;
13085;SDS011;6609;49.882;8.664;2023-08-06T07:17:01;3.07;;;1.40;;
13085;SDS011;6609;49.882;8.664;2023-08-06T07:19:29;2.10;;;1.00;;
13085;SDS011;6609;49.882;8.664;2023-08-06T07:21:56;4.47;;;1.87;;
13085;SDS011;6609;49.882;8.664;2023-08-06T07:24:23;5.37;;;1.90;;
13085;SDS011;6609;49.882;8.664;2023-08-06T07:26:51;4.47;;;1.83;;
13085;SDS011;6609;49.882;8.664;2023-08-06T07:29:18;3.93;;;1.60;;
13085;SDS011;6609;49.882;8.664;2023-08-06T07:31:47;3.20;;;1.90;;
13085;SDS011;6609;49.882;8.664;2023-08-06T07:34:15;2.70;;;1.80;;
13085;SDS011;6609;49.882;8.664;2023-08-06T07:36:44;5.23;;;2.13;;
13085;SDS011;6609;49.882;8.664;2023-08-06T07:39:12;2.47;;;1.60;;
13085;SDS011;6609;49.882;8.664;2023-08-06T07:41:39;3.33;;;1.97;;
13085;SDS011;6609;49.882;8.664;2023-08-06T07:44:06;2.63;;;2.10;;
13085;SDS011;6609;49.882;8.664;2023-08-06T07:46:33;6.07;;;2.30;;
13085;SDS011;6609;49.882;8.664;2023-08-06T07:49:00;3.07;;;1.90;;
13085;SDS011;6609;49.882;8.664;2023-08-06T07:51:27;5.33;;;2.00;;
13085;SDS011;6609;49.882;8.664;2023-08-06T07:53:56;2.67;;;1.70;;
13085;SDS011;6609;49.882;8.664;2023-08-06T07:56:22;4.20;;;1.90;;
13085;SDS011;6609;49.882;8.664;2023-08-06T07:58:49;5.77;;;2.50;;
13085;SDS011;6609;49.882;8.664;2023-08-06T08:01:16;3.60;;;1.87;;
13085;SDS011;6609;49.882;8.664;2023-08-06T08:03:43;4.97;;;2.37;;
13085;SDS011;6609;49.882;8.664;2023-08-06T08:06:10;2.90;;;1.80;;
13085;SDS011;6609;49.882;8.664;2023-08-06T08:08:37;3.00;;;1.40;;
13085;SDS011;6609;49.882;8.664;2023-08-06T08:11:05;2.23;;;1.67;;
13085;SDS011;6609;49.882;8.664;2023-08-06T08:13:32;4.97;;;1.87;;
13085;SDS011;6609;49.882;8.664;2023-08-06T08:16:01;5.33;;;2.20;;
13085;SDS011;6609;49.882;8.664;2023-08-06T08:18:28;3.03;;;1.93;;
13085;SDS011;6609;49.882;8.664;2023-08-06T08:20:56;3.90;;;2.23;;
13085;SDS011;6609;49.882;8.664;2023-08-06T08:23:23;4.30;;;1.73;;
13085;SDS011;6609;49.882;8.664;2023-08-06T08:25:50;4.80;;;1.90;;
13085;SDS011;6609;49.882;8.664;2023-08-06T08:28:18;3.17;;;1.83;;
13085;SDS011;6609;49.882;8.664;2023-08-06T08:30:45;2.63;;;1.83;;
13085;SDS011;6609;49.882;8.664;2023-08-06T08:33:12;4.73;;;2.17;;
13085;SDS011;6609;49.882;8.664;2023-08-06T08:35:40;5.17;;;1.53;;
13085;SDS011;6609;49.882;8.664;2023-08-06T08:38:06;4.07;;;1.70;;
13085;SDS011;6609;49.882;8.664;2023-08-06T08:40:33;4.47;;;1.57;;
13085;SDS011;6609;49.882;8.664;2023-08-06T08:43:04;4.17;;;1.37;;
13085;SDS011;6609;49.882;8.664;2023-08-06T08:45:32;2.80;;;1.20;;
13085;SDS011;6609;49.882;8.664;2023-08-06T08:48:01;2.00;;;1.30;;
13085;SDS011;6609;49.882;8.664;2023-08-06T08:50:28;1.57;;;1.10;;
13085;SDS011;6609;49.882;8.664;2023-08-06T08:52:55;5.90;;;1.67;;
13085;SDS011;6609;49.882;8.664;2023-08-06T08:55:22;2.67;;;1.07;;
13085;SDS011;6609;49.882;8.664;2023-08-06T08:57:49;2.17;;;1.03;;
13085;SDS011;6609;49.882;8.664;2023-08-06T09:00:16;2.80;;;1.03;;
13085;SDS011;6609;49.882;8.664;2023-08-06T09:02:44;1.67;;;1.10;;
13085;SDS011;6609;49.882;8.664;2023-08-06T09:05:11;2.43;;;1.00;;
13085;SDS011;6609;49.882;8.664;2023-08-06T09:07:41;2.07;;;1.10;;
13085;SDS011;6609;49.882;8.664;2023-08-06T09:10:10;1.10;;;0.83;;
13085;SDS011;6609;49.882;8.664;2023-08-06T09:12:38;1.60;;;0.97;;
13085;SDS011;6609;49.882;8.664;2023-08-06T09:15:05;3.40;;;1.00;;
13085;SDS011;6609;49.882;8.664;2023-08-06T09:17:33;1.10;;;0.90;;
13085;SDS011;6609;49.882;8.664;2023-08-06T09:20:09;2.20;;;1.00;;
13085;SDS011;6609;49.882;8.664;2023-08-06T09:22:37;1.03;;;0.77;;
13085;SDS011;6609;49.882;8.664;2023-08-06T09:25:04;2.17;;;0.90;;
13085;SDS011;6609;49.882;8.664;2023-08-06T09:27:34;3.47;;;1.00;;
13085;SDS011;6609;49.882;8.664;2023-08-06T09:30:02;1.30;;;0.87;;
13085;SDS011;6609;49.882;8.664;2023-08-06T09:32:33;2.63;;;1.07;;
13085;SDS011;6609;49.882;8.664;2023-08-06T09:35:14;1.40;;;0.90;;
13085;SDS011;6609;49.882;8.664;2023-08-06T09:37:42;2.23;;;0.93;;
13085;SDS011;6609;49.882;8.664;2023-08-06T09:42:52;1.50;;;1.00;;
13085;SDS011;6609;49.882;8.664;2023-08-06T09:45:20;1.87;;;0.73;;
13085;SDS011;6609;49.882;8.664;2023-08-06T09:47:48;1.50;;;0.60;;
13085;SDS011;6609;49.882;8.664;2023-08-06T09:50:16;1.30;;;0.70;;
13085;SDS011;6609;49.882;8.664;2023-08-06T09:52:44;1.10;;;0.90;;
13085;SDS011;6609;49.882;8.664;2023-08-06T09:55:11;1.30;;;0.90;;
13085;SDS011;6609;49.882;8.664;2023-08-06T09:57:39;1.47;;;0.90;;
13085;SDS011;6609;49.882;8.664;2023-08-06T10:00:07;2.70;;;0.77;;
13085;SDS011;6609;49.882;8.664;2023-08-06T10:02:35;2.17;;;1.00;;
13085;SDS011;6609;49.882;8.664;2023-08-06T10:05:02;2.07;;;1.10;;
13085;SDS011;6609;49.882;8.664;2023-08-06T10:07:31;1.33;;;0.97;;
13085;SDS011;6609;49.882;8.664;2023-08-06T10:09:58;2.10;;;1.20;;
13085;SDS011;6609;49.882;8.664;2023-08-06T10:12:25;1.63;;;0.90;;
13085;SDS011;6609;49.882;8.664;2023-08-06T10:14:53;1.77;;;1.13;;
13085;SDS011;6609;49.882;8.664;2023-08-06T10:17:21;1.70;;;1.20;;
13085;SDS011;6609;49.882;8.664;2023-08-06T10:19:49;1.73;;;1.00;;
13085;SDS011;6609;49.882;8.664;2023-08-06T10:22:16;3.20;;;1.20;;
13085;SDS011;6609;49.882;8.664;2023-08-06T10:24:49;1.87;;;1.07;;
13085;SDS011;6609;49.882;8.664;2023-08-06T10:27:20;3.70;;;2.00;;
13085;SDS011;6609;49.882;8.664;2023-08-06T10:29:48;2.33;;;1.40;;
13085;SDS011;6609;49.882;8.664;2023-08-06T10:32:15;2.00;;;1.00;;
13085;SDS011;6609;49.882;8.664;2023-08-06T10:34:53;2.50;;;1.30;;
13085;SDS011;6609;49.882;8.664;2023-08-06T10:37:24;2.97;;;1.20;;
13085;SDS011;6609;49.882;8.664;2023-08-06T10:39:52;1.50;;;0.97;;
13085;SDS011;6609;49.882;8.664;2023-08-06T10:42:20;1.37;;;1.07;;
13085;SDS011;6609;49.882;8.664;2023-08-06T10:47:43;1.47;;;1.07;;
13085;SDS011;6609;49.882;8.664;2023-08-06T10:50:11;0.93;;;0.67;;
13085;SDS011;6609;49.882;8.664;2023-08-06T10:52:39;1.63;;;0.53;;
13085;SDS011;6609;49.882;8.664;2023-08-06T10:55:07;0.80;;;0.70;;
13085;SDS011;6609;49.882;8.664;2023-08-06T10:57:35;1.10;;;0.70;;
13085;SDS011;6609;49.882;8.664;2023-08-06T11:00:03;3.43;;;0.80;;
13085;SDS011;6609;49.882;8.664;2023-08-06T11:02:33;2.40;;;0.90;;
13085;SDS011;6609;49.882;8.664;2023-08-06T11:05:04;2.50;;;1.00;;
13085;SDS011;6609;49.882;8.664;2023-08-06T11:07:31;0.90;;;0.70;;
13085;SDS011;6609;49.882;8.664;2023-08-06T11:10:00;1.63;;;0.90;;
13085;SDS011;6609;49.882;8.664;2023-08-06T11:12:30;1.20;;;0.70;;
13085;SDS011;6609;49.882;8.664;2023-08-06T11:14:57;0.93;;;0.80;;
13085;SDS011;6609;49.882;8.664;2023-08-06T11:17:23;1.13;;;0.70;;
13085;SDS011;6609;49.882;8.664;2023-08-06T11:19:50;1.17;;;0.70;;
13085;SDS011;6609;49.882;8.664;2023-08-06T11:22:18;2.03;;;0.90;;
13085;SDS011;6609;49.882;8.664;2023-08-06T11:24:45;1.73;;;1.10;;
13085;SDS011;6609;49.882;8.664;2023-08-06T11:27:13;0.93;;;0.73;;
13085;SDS011;6609;49.882;8.664;2023-08-06T11:29:41;3.10;;;1.20;;
13085;SDS011;6609;49.882;8.664;2023-08-06T11:32:08;2.33;;;0.93;;
13085;SDS011;6609;49.882;8.664;2023-08-06T11:34:35;3.07;;;0.87;;
13085;SDS011;6609;49.882;8.664;2023-08-06T11:37:02;2.07;;;1.03;;
13085;SDS011;6609;49.882;8.664;2023-08-06T11:39:30;1.87;;;0.80;;
13085;SDS011;6609;49.882;8.664;2023-08-06T11:41:57;1.87;;;0.80;;
13085;SDS011;6609;49.882;8.664;2023-08-06T11:44:29;1.90;;;1.00;;
13085;SDS011;6609;49.882;8.664;2023-08-06T11:46:59;2.23;;;1.30;;
13085;SDS011;6609;49.882;8.664;2023-08-06T11:52:16;2.40;;;1.30;;
13085;SDS011;6609;49.882;8.664;2023-08-06T11:54:45;2.50;;;1.30;;
13085;SDS011;6609;49.882;8.664;2023-08-06T11:57:12;1.80;;;1.00;;
13085;SDS011;6609;49.882;8.664;2023-08-06T11:59:39;2.13;;;0.90;;
13085;SDS011;6609;49.882;8.664;2023-08-06T12:02:09;1.40;;;0.90;;
13085;SDS011;6609;49.882;8.664;2023-08-06T12:07:28;1.17;;;0.70;;
13085;SDS011;6609;49.882;8.664;2023-08-06T12:09:55;0.83;;;0.60;;
13085;SDS011;6609;49.882;8.664;2023-08-06T12:12:22;1.80;;;0.70;;
13085;SDS011;6609;49.882;8.664;2023-08-06T12:14:49;1.63;;;0.83;;
13085;SDS011;6609;49.882;8.664;2023-08-06T12:17:17;1.37;;;0.90;;
13085;SDS011;6609;49.882;8.664;2023-08-06T12:19:45;1.60;;;1.00;;
13085;SDS011;6609;49.882;8.664;2023-08-06T12:22:12;1.60;;;1.00;;
13085;SDS011;6609;49.882;8.664;2023-08-06T12:24:40;2.10;;;1.03;;
13085;SDS011;6609;49.882;8.664;2023-08-06T12:27:07;2.40;;;1.30;;
13085;SDS011;6609;49.882;8.664;2023-08-06T12:29:34;2.17;;;1.13;;
13085;SDS011;6609;49.882;8.664;2023-08-06T12:32:02;2.53;;;0.97;;
13085;SDS011;6609;49.882;8.664;2023-08-06T12:34:31;2.33;;;1.20;;
13085;SDS011;6609;49.882;8.664;2023-08-06T12:36:58;3.37;;;1.27;;
13085;SDS011;6609;49.882;8.664;2023-08-06T12:39:25;3.13;;;1.00;;
13085;SDS011;6609;49.882;8.664;2023-08-06T12:41:53;1.93;;;0.97;;
13085;SDS011;6609;49.882;8.664;2023-08-06T12:44:22;3.60;;;1.57;;
13085;SDS011;6609;49.882;8.664;2023-08-06T12:46:49;2.90;;;1.30;;
13085;SDS011;6609;49.882;8.664;2023-08-06T12:49:16;3.17;;;1.43;;
13085;SDS011;6609;49.882;8.664;2023-08-06T12:51:44;3.23;;;1.30;;
13085;SDS011;6609;49.882;8.664;2023-08-06T12:54:11;2.87;;;1.30;;
13085;SDS011;6609;49.882;8.664;2023-08-06T12:56:38;3.50;;;1.20;;
13085;SDS011;6609;49.882;8.664;2023-08-06T12:59:05;2.80;;;1.47;;
13085;SDS011;6609;49.882;8.664;2023-08-06T13:01:32;2.33;;;1.07;;
13085;SDS011;6609;49.882;8.664;2023-08-06T13:03:59;1.40;;;0.90;;
13085;SDS011;6609;49.882;8.664;2023-08-06T13:06:26;1.50;;;1.00;;
13085;SDS011;6609;49.882;8.664;2023-08-06T13:08:54;3.37;;;1.23;;
13085;SDS011;6609;49.882;8.664;2023-08-06T13:11:21;4.90;;;1.63;;
13085;SDS011;6609;49.882;8.664;2023-08-06T13:13:48;2.20;;;1.40;;
13085;SDS011;6609;49.882;8.664;2023-08-06T13:16:15;2.13;;;1.40;;
13085;SDS011;6609;49.882;8.664;2023-08-06T13:18:42;3.83;;;1.27;;
13085;SDS011;6609;49.882;8.664;2023-08-06T13:21:09;2.43;;;1.27;;
13085;SDS011;6609;49.882;8.664;2023-08-06T13:23:36;3.73;;;2.00;;
13085;SDS011;6609;49.882;8.664;2023-08-06T13:26:04;4.37;;;1.90;;
13085;SDS011;6609;49.882;8.664;2023-08-06T13:28:31;3.87;;;1.87;;
13085;SDS011;6609;49.882;8.664;2023-08-06T13:30:58;5.87;;;1.63;;
13085;SDS011;6609;49.882;8.664;2023-08-06T13:33:24;2.23;;;1.20;;
13085;SDS011;6609;49.882;8.664;2023-08-06T13:35:52;2.10;;;1.27;;
13085;SDS011;6609;49.882;8.664;2023-08-06T13:38:19;2.43;;;1.17;;
13085;SDS011;6609;49.882;8.664;2023-08-06T13:40:46;2.73;;;1.07;;
13085;SDS011;6609;49.882;8.664;2023-08-06T13:43:14;2.23;;;1.20;;
13085;SDS011;6609;49.882;8.664;2023-08-06T13:45:44;1.83;;;1.00;;
13085;SDS011;6609;49.882;8.664;2023-08-06T13:48:11;3.83;;;1.67;;
13085;SDS011;6609;49.882;8.664;2023-08-06T13:50:38;2.27;;;1.00;;
13085;SDS011;6609;49.882;8.664;2023-08-06T13:53:05;2.90;;;1.43;;
13085;SDS011;6609;49.882;8.664;2023-08-06T13:55:31;3.07;;;1.30;;
13085;SDS011;6609;49.882;8.664;2023-08-06T13:57:58;5.50;;;1.63;;
13085;SDS011;6609;49.882;8.664;2023-08-06T14:00:26;3.90;;;1.50;;
13085;SDS011;6609;49.882;8.664;2023-08-06T14:02:53;2.10;;;1.00;;
13085;SDS011;6609;49.882;8.664;2023-08-06T14:05:20;4.63;;;1.37;;
13085;SDS011;6609;49.882;8.664;2023-08-06T14:07:47;1.90;;;1.30;;
13085;SDS011;6609;49.882;8.664;2023-08-06T14:10:14;3.37;;;1.40;;
13085;SDS011;6609;49.882;8.664;2023-08-06T14:12:41;2.63;;;1.43;;
13085;SDS011;6609;49.882;8.664;2023-08-06T14:15:08;3.60;;;1.50;;
13085;SDS011;6609;49.882;8.664;2023-08-06T14:17:37;4.50;;;1.60;;
13085;SDS011;6609;49.882;8.664;2023-08-06T14:20:05;3.17;;;1.70;;
13085;SDS011;6609;49.882;8.664;2023-08-06T14:22:36;3.43;;;1.37;;
13085;SDS011;6609;49.882;8.664;2023-08-06T14:25:03;3.80;;;1.50;;
13085;SDS011;6609;49.882;8.664;2023-08-06T14:27:31;1.63;;;1.13;;
13085;SDS011;6609;49.882;8.664;2023-08-06T14:29:58;1.63;;;0.97;;
13085;SDS011;6609;49.882;8.664;2023-08-06T14:32:25;2.47;;;1.43;;
13085;SDS011;6609;49.882;8.664;2023-08-06T14:34:54;2.37;;;1.23;;
13085;SDS011;6609;49.882;8.664;2023-08-06T14:37:21;1.30;;;0.73;;
13085;SDS011;6609;49.882;8.664;2023-08-06T14:39:48;4.23;;;1.27;;
13085;SDS011;6609;49.882;8.664;2023-08-06T14:42:14;2.83;;;1.13;;
13085;SDS011;6609;49.882;8.664;2023-08-06T14:44:41;2.23;;;1.00;;
13085;SDS011;6609;49.882;8.664;2023-08-06T14:47:08;3.00;;;1.70;;
13085;SDS011;6609;49.882;8.664;2023-08-06T14:49:35;1.33;;;0.80;;
13085;SDS011;6609;49.882;8.664;2023-08-06T14:52:04;3.17;;;1.40;;
13085;SDS011;6609;49.882;8.664;2023-08-06T14:54:31;2.00;;;0.90;;
13085;SDS011;6609;49.882;8.664;2023-08-06T14:56:58;1.70;;;0.93;;
13085;SDS011;6609;49.882;8.664;2023-08-06T14:59:26;1.60;;;1.00;;
13085;SDS011;6609;49.882;8.664;2023-08-06T15:01:52;2.17;;;1.03;;
13085;SDS011;6609;49.882;8.664;2023-08-06T15:04:19;1.97;;;0.83;;
13085;SDS011;6609;49.882;8.664;2023-08-06T15:06:47;1.73;;;0.90;;
13085;SDS011;6609;49.882;8.664;2023-08-06T15:09:16;2.27;;;1.10;;
13085;SDS011;6609;49.882;8.664;2023-08-06T15:11:42;1.53;;;0.87;;
13085;SDS011;6609;49.882;8.664;2023-08-06T15:14:09;1.63;;;1.00;;